Augsburg, Illinois
Current Conditions -  °F | °C
As of 5:15 AM on Thursday 23 Oct 2014 (Local Time) from KSLO Reporting Station
Clear Clear  
Wind Chill:   Ceiling: Unl
Heat Index:   Visibility: 10mi
Dew Point:   Wind: 3mph
Humidity: 94%   Direction: 110°ESE
Pressure: 30.22"   Gusts: NA
Location:  38.8463°N, 89.0894°W
Report Text: KSLO 231015Z AUTO 11003KT 10SM CLR 06/05 A3022 RMK AO2 T00570048
Loading
Personal Weather Stations






























Interactive Weather Map New forecast layout! Learn more

10-Day Weather Forecast

Advertisements
Track Severe Weather on mobile